createdAt,value
2019-03-29T00:00:13.948Z,42.20
2019-03-29T00:02:43.897Z,40.17
2019-03-29T00:05:14.658Z,36.63
2019-03-29T00:07:44.731Z,37.17
2019-03-29T00:10:15.494Z,38.47
2019-03-29T00:12:46.583Z,40.33
2019-03-29T00:15:17.431Z,33.13
2019-03-29T00:17:47.415Z,43.40
2019-03-29T00:20:18.163Z,41.20
2019-03-29T00:22:49.008Z,47.70
2019-03-29T00:25:19.876Z,34.07
2019-03-29T00:27:50.746Z,33.40
2019-03-29T00:30:22.122Z,39.53
2019-03-29T00:32:53.075Z,37.20
2019-03-29T00:35:23.939Z,32.47
2019-03-29T00:37:55.813Z,38.03
2019-03-29T00:40:26.783Z,34.98
2019-03-29T00:42:57.619Z,38.03
2019-03-29T00:45:28.470Z,34.57
2019-03-29T00:47:58.338Z,35.03
2019-03-29T00:50:29.151Z,49.23
2019-03-29T00:53:00.116Z,34.00
2019-03-29T00:55:31.088Z,36.65
2019-03-29T00:58:02.011Z,36.63
2019-03-29T01:00:33.668Z,39.87
2019-03-29T01:03:04.027Z,36.83
2019-03-29T01:05:33.878Z,32.30
2019-03-29T01:08:08.274Z,29.77
2019-03-29T01:10:36.388Z,36.27
2019-03-29T01:13:07.685Z,33.20
2019-03-29T01:15:38.563Z,39.43
2019-03-29T01:18:09.414Z,32.27
2019-03-29T01:20:40.332Z,32.50
2019-03-29T01:23:11.216Z,34.37
2019-03-29T01:25:42.054Z,35.80
2019-03-29T01:28:12.265Z,34.97
2019-03-29T01:30:43.099Z,35.03
2019-03-29T01:33:13.038Z,37.37
2019-03-29T01:35:42.887Z,39.08
2019-03-29T01:38:21.577Z,35.43
2019-03-29T01:40:44.238Z,38.00
2019-03-29T01:43:14.041Z,36.10
2019-03-29T01:45:45.915Z,37.80
2019-03-29T01:48:16.106Z,37.97
2019-03-29T01:50:46.862Z,35.43
2019-03-29T01:53:17.754Z,44.80
2019-03-29T01:55:48.899Z,39.47
2019-03-29T01:58:20.151Z,33.83
2019-03-29T02:00:51.003Z,39.70
2019-03-29T02:03:20.958Z,34.30
2019-03-29T02:05:51.651Z,39.10
2019-03-29T02:08:35.163Z,39.57
2019-03-29T02:10:54.987Z,37.90
2019-03-29T02:13:26.095Z,39.97
2019-03-29T02:15:56.299Z,36.77
2019-03-29T02:18:27.079Z,36.90
2019-03-29T02:20:57.941Z,35.30
2019-03-29T02:23:28.796Z,37.10
2019-03-29T02:25:59.656Z,36.73
2019-03-29T02:28:29.611Z,38.50
2019-03-29T02:31:00.677Z,35.67
2019-03-29T02:33:30.603Z,39.87
2019-03-29T02:36:01.370Z,38.03
2019-03-29T02:38:31.326Z,38.30
2019-03-29T02:41:02.100Z,39.80
2019-03-29T02:43:32.064Z,38.90
2019-03-29T02:46:02.829Z,45.47
2019-03-29T02:48:32.867Z,39.07
2019-03-29T02:51:04.792Z,39.17
2019-03-29T02:53:35.215Z,46.47
2019-03-29T02:56:06.092Z,45.53
2019-03-29T02:58:36.020Z,42.15
2019-03-29T03:01:05.895Z,46.97
2019-03-29T03:03:36.693Z,49.50
2019-03-29T03:06:07.560Z,41.37
2019-03-29T03:08:37.491Z,50.33
2019-03-29T03:11:08.255Z,48.87
2019-03-29T03:13:39.082Z,48.70
2019-03-29T03:16:09.951Z,43.83
2019-03-29T03:18:40.788Z,44.40
2019-03-29T03:21:11.623Z,44.13
2019-03-29T03:23:42.503Z,45.33
2019-03-29T03:26:13.365Z,52.40
2019-03-29T03:28:44.225Z,50.40
2019-03-29T03:31:15.076Z,43.17
2019-03-29T03:33:45.943Z,47.73
2019-03-29T03:36:15.883Z,48.50
2019-03-29T03:38:46.664Z,52.43
2019-03-29T03:41:17.504Z,51.10
2019-03-29T03:43:47.484Z,51.63
2019-03-29T03:46:17.333Z,52.07
2019-03-29T03:48:48.211Z,46.53
2019-03-29T03:51:19.138Z,51.20
2019-03-29T03:53:50.395Z,53.80
2019-03-29T03:56:21.559Z,48.27
2019-03-29T03:58:52.710Z,56.90
2019-03-29T04:01:22.562Z,57.97
2019-03-29T04:03:52.411Z,55.90
2019-03-29T04:06:22.269Z,54.03
2019-03-29T04:08:53.027Z,64.17
2019-03-29T04:11:23.923Z,52.40
2019-03-29T04:13:54.779Z,60.07
2019-03-29T04:16:25.630Z,66.67
2019-03-29T04:18:56.526Z,62.17
2019-03-29T04:21:27.369Z,55.88
2019-03-29T04:23:57.309Z,60.20
2019-03-29T04:26:28.078Z,56.45
2019-03-29T04:29:04.709Z,49.73
2019-03-29T04:31:31.402Z,60.07
2019-03-29T04:34:01.340Z,59.73
2019-03-29T04:36:32.095Z,56.85
2019-03-29T04:39:04.756Z,57.43
2019-03-29T04:41:35.618Z,49.87
2019-03-29T04:44:06.605Z,55.57
2019-03-29T04:46:36.613Z,48.03
2019-03-29T04:49:07.375Z,48.20
2019-03-29T04:51:38.228Z,47.65
2019-03-29T04:54:09.103Z,55.60
2019-03-29T04:56:39.954Z,60.93
2019-03-29T04:59:10.819Z,50.43
2019-03-29T05:01:41.687Z,53.43
2019-03-29T05:04:12.566Z,58.70
2019-03-29T05:06:43.391Z,48.77
2019-03-29T05:09:14.269Z,52.00
2019-03-29T05:11:45.115Z,48.97
2019-03-29T05:14:16.054Z,45.73
2019-03-29T05:16:45.903Z,52.53
2019-03-29T05:19:15.743Z,49.50
2019-03-29T05:21:46.539Z,48.13
2019-03-29T05:24:16.466Z,45.10
2019-03-29T05:26:47.251Z,49.17
2019-03-29T05:29:17.289Z,49.50
2019-03-29T05:31:48.075Z,56.20
2019-03-29T05:34:18.001Z,52.93
2019-03-29T05:36:48.798Z,58.90
2019-03-29T05:39:19.650Z,47.57
2019-03-29T05:41:50.499Z,54.40
2019-03-29T05:44:20.455Z,51.80
2019-03-29T05:46:51.253Z,51.17
2019-03-29T05:49:22.114Z,60.03
2019-03-29T05:51:52.937Z,54.40
2019-03-29T05:54:23.815Z,58.80
2019-03-29T05:56:54.691Z,55.70
2019-03-29T05:59:25.530Z,52.20
2019-03-29T06:01:56.375Z,57.00
2019-03-29T06:04:26.319Z,62.17
2019-03-29T06:06:56.237Z,58.97
2019-03-29T06:09:26.996Z,70.83
2019-03-29T06:11:57.869Z,69.23
2019-03-29T06:14:28.711Z,71.00
2019-03-29T06:16:59.606Z,74.87
2019-03-29T06:19:30.499Z,71.17
2019-03-29T06:22:01.375Z,84.33
2019-03-29T06:24:32.219Z,83.97
2019-03-29T06:27:03.128Z,78.13
2019-03-29T06:29:33.977Z,84.72
2019-03-29T06:32:04.862Z,91.17
2019-03-29T06:34:35.719Z,89.70
2019-03-29T06:37:07.607Z,87.87
2019-03-29T06:39:38.047Z,72.03
2019-03-29T06:42:08.802Z,77.60
2019-03-29T06:44:38.752Z,86.17
2019-03-29T06:47:09.534Z,74.97
2019-03-29T06:49:40.392Z,63.03
2019-03-29T06:52:11.247Z,59.67
2019-03-29T06:54:42.178Z,54.77
2019-03-29T06:57:13.100Z,58.57
2019-03-29T06:59:44.080Z,52.13
2019-03-29T07:02:14.027Z,47.63
2019-03-29T07:04:44.884Z,47.80
2019-03-29T07:07:15.768Z,46.33
2019-03-29T07:09:46.694Z,49.83
2019-03-29T07:12:16.667Z,43.80
2019-03-29T07:14:46.555Z,44.20
2019-03-29T07:17:16.402Z,42.63
2019-03-29T07:19:47.177Z,38.97
2019-03-29T07:22:17.110Z,36.13
2019-03-29T07:24:47.924Z,33.90
2019-03-29T07:27:18.786Z,37.57
2019-03-29T07:29:49.490Z,36.70
2019-03-29T07:32:20.343Z,34.77
2019-03-29T07:34:51.206Z,34.30
2019-03-29T07:37:21.168Z,38.27
2019-03-29T07:39:53.823Z,31.07
2019-03-29T07:42:23.488Z,34.57
2019-03-29T07:44:54.279Z,33.27
2019-03-29T07:47:25.167Z,30.63
2019-03-29T07:49:56.006Z,30.07
2019-03-29T07:52:26.872Z,30.70
2019-03-29T07:54:56.806Z,30.17
2019-03-29T07:57:27.595Z,29.57
2019-03-29T07:59:58.430Z,32.53
2019-03-29T08:02:29.023Z,36.70
2019-03-29T08:05:00.273Z,32.60
2019-03-29T08:07:31.585Z,34.60
2019-03-29T08:10:04.016Z,34.00
2019-03-29T08:12:34.348Z,34.13
2019-03-29T08:15:09.284Z,37.73
2019-03-29T08:17:38.408Z,34.17
2019-03-29T08:20:37.182Z,32.00
2019-03-29T08:22:39.822Z,31.17
2019-03-29T08:25:10.796Z,36.63
2019-03-29T08:27:40.727Z,41.23
2019-03-29T08:30:11.705Z,36.90
2019-03-29T08:32:42.692Z,33.30
2019-03-29T08:35:13.564Z,36.77
2019-03-29T08:37:44.947Z,33.60
2019-03-29T08:40:14.940Z,34.77
2019-03-29T08:42:45.945Z,37.00
2019-03-29T08:45:16.808Z,33.30
2019-03-29T08:47:46.771Z,35.93
2019-03-29T08:50:17.522Z,38.67
2019-03-29T08:52:47.523Z,35.33
2019-03-29T08:55:18.116Z,37.73
2019-03-29T08:57:48.927Z,36.57
2019-03-29T09:00:28.714Z,40.20
2019-03-29T09:02:58.580Z,35.63
2019-03-29T09:05:29.363Z,37.20
2019-03-29T09:08:00.761Z,38.87
2019-03-29T09:10:30.812Z,39.10
2019-03-29T09:13:04.076Z,47.83
2019-03-29T09:15:33.132Z,39.57
2019-03-29T09:18:04.034Z,38.80
2019-03-29T09:20:34.636Z,38.23
2019-03-29T09:23:05.813Z,40.07
2019-03-29T09:25:40.171Z,38.78
2019-03-29T09:28:09.179Z,38.33
2019-03-29T09:30:39.119Z,36.60
2019-03-29T09:33:09.979Z,35.00
2019-03-29T09:35:42.574Z,35.03
2019-03-29T09:38:11.399Z,40.37
2019-03-29T09:40:41.372Z,36.67
2019-03-29T09:43:11.260Z,38.37
2019-03-29T09:45:41.402Z,39.93
2019-03-29T09:48:11.283Z,40.30
2019-03-29T09:50:41.154Z,37.07
2019-03-29T09:53:11.981Z,40.30
2019-03-29T09:55:45.360Z,41.90
2019-03-29T09:58:16.387Z,39.80
2019-03-29T10:00:45.838Z,37.87
2019-03-29T10:03:16.732Z,41.03
2019-03-29T10:05:47.568Z,37.30
2019-03-29T10:08:17.506Z,39.07
2019-03-29T10:10:48.300Z,38.67
2019-03-29T10:13:19.183Z,38.30
2019-03-29T10:15:51.461Z,42.10
2019-03-29T10:18:22.472Z,40.67
2019-03-29T10:20:53.382Z,40.93
2019-03-29T10:23:24.260Z,44.53
2019-03-29T10:25:58.519Z,40.33
2019-03-29T10:28:27.793Z,43.47
2019-03-29T10:30:58.658Z,42.53
2019-03-29T10:33:29.535Z,42.90
2019-03-29T10:36:00.470Z,44.80
2019-03-29T10:38:30.441Z,39.00
2019-03-29T10:41:00.339Z,43.77
2019-03-29T10:43:30.251Z,42.47
2019-03-29T10:46:01.055Z,42.00
2019-03-29T10:48:31.060Z,46.67
2019-03-29T10:51:01.864Z,40.80
2019-03-29T10:53:31.803Z,40.43
2019-03-29T10:56:01.686Z,44.73
2019-03-29T10:58:31.527Z,41.13
2019-03-29T11:01:02.330Z,41.93
2019-03-29T11:03:32.263Z,42.70
2019-03-29T11:06:03.041Z,42.30
2019-03-29T11:08:32.995Z,43.83
2019-03-29T11:11:04.111Z,43.67
2019-03-29T11:13:35.015Z,45.23
2019-03-29T11:16:06.182Z,40.20
2019-03-29T11:18:37.116Z,42.08
2019-03-29T11:21:07.064Z,41.50
2019-03-29T11:23:38.255Z,39.25
2019-03-29T11:26:09.207Z,39.70
2019-03-29T11:28:40.096Z,36.73
2019-03-29T11:31:10.059Z,44.87
2019-03-29T11:33:40.795Z,37.57
2019-03-29T11:36:10.775Z,40.27
2019-03-29T11:38:40.666Z,39.53
2019-03-29T11:41:10.552Z,36.77
2019-03-29T11:43:41.344Z,36.00
2019-03-29T11:46:11.299Z,35.60
2019-03-29T11:48:42.159Z,36.80
2019-03-29T11:51:19.242Z,37.20
2019-03-29T11:53:43.647Z,38.07
2019-03-29T11:56:14.484Z,36.30
2019-03-29T11:58:44.463Z,38.10
2019-03-29T12:01:15.365Z,39.10
2019-03-29T12:03:46.255Z,40.07
2019-03-29T12:06:16.195Z,38.23
2019-03-29T12:08:47.052Z,39.87
2019-03-29T12:11:16.992Z,40.00
2019-03-29T12:13:46.869Z,42.73
2019-03-29T12:16:16.707Z,40.03
2019-03-29T12:18:47.490Z,39.57
2019-03-29T12:21:18.343Z,38.40
2019-03-29T12:23:48.302Z,40.53
2019-03-29T12:26:18.074Z,37.63
2019-03-29T12:28:48.893Z,39.50
2019-03-29T12:31:19.742Z,40.93
2019-03-29T12:33:49.663Z,36.83
2019-03-29T12:36:20.252Z,39.30
2019-03-29T12:38:50.170Z,39.40
2019-03-29T12:41:20.040Z,34.73
2019-03-29T12:43:55.845Z,39.63
2019-03-29T12:46:22.404Z,35.53
2019-03-29T12:48:53.303Z,35.67
2019-03-29T12:51:23.250Z,33.50
2019-03-29T12:53:54.060Z,32.50
2019-03-29T12:56:24.974Z,35.00
2019-03-29T12:58:55.971Z,33.43
2019-03-29T13:01:38.438Z,30.88
2019-03-29T13:03:58.435Z,28.33
2019-03-29T13:06:29.241Z,38.48
2019-03-29T13:08:59.233Z,34.73
2019-03-29T13:11:29.171Z,33.07
2019-03-29T13:14:10.269Z,32.30
2019-03-29T13:16:31.587Z,30.27
2019-03-29T13:19:02.395Z,35.43
2019-03-29T13:21:32.320Z,32.90
2019-03-29T13:24:03.127Z,34.67
2019-03-29T13:26:33.091Z,32.53
2019-03-29T13:29:03.257Z,34.17
2019-03-29T13:31:33.123Z,32.67
2019-03-29T13:34:03.988Z,35.10
2019-03-29T13:36:34.911Z,33.77
2019-03-29T13:39:07.912Z,32.80
2019-03-29T13:41:37.891Z,32.33
2019-03-29T13:44:08.718Z,34.83
2019-03-29T13:46:39.621Z,33.77
2019-03-29T13:49:10.620Z,33.13
2019-03-29T13:51:41.474Z,31.30
2019-03-29T13:54:11.507Z,31.17
2019-03-29T13:56:42.439Z,32.10
2019-03-29T13:59:12.382Z,31.07
2019-03-29T14:01:43.167Z,30.13
2019-03-29T14:04:13.129Z,34.03
2019-03-29T14:06:44.004Z,33.03
2019-03-29T14:09:14.915Z,30.67
2019-03-29T14:11:45.857Z,29.93
2019-03-29T14:14:16.164Z,28.77
2019-03-29T14:16:46.141Z,30.17
2019-03-29T14:19:16.068Z,28.83
2019-03-29T14:21:46.069Z,30.27
2019-03-29T14:24:17.541Z,34.23
2019-03-29T14:26:48.467Z,29.03
2019-03-29T14:29:19.462Z,33.10
2019-03-29T14:31:53.948Z,30.53
2019-03-29T14:34:24.500Z,33.33
2019-03-29T14:36:54.531Z,31.07
2019-03-29T14:39:24.439Z,32.17
2019-03-29T14:41:54.814Z,30.47
2019-03-29T14:44:25.649Z,33.73
2019-03-29T14:46:56.800Z,30.17
2019-03-29T14:49:27.702Z,30.53
2019-03-29T14:51:57.729Z,29.63
2019-03-29T14:54:28.547Z,27.90
2019-03-29T14:56:59.438Z,28.07
2019-03-29T14:59:30.234Z,31.20
2019-03-29T15:02:01.432Z,31.83
2019-03-29T15:04:31.426Z,26.63
2019-03-29T15:07:02.667Z,24.60
2019-03-29T15:09:32.613Z,26.03
2019-03-29T15:12:02.522Z,30.50
2019-03-29T15:14:32.358Z,27.10
2019-03-29T15:17:02.366Z,24.37
2019-03-29T15:19:33.199Z,26.87
2019-03-29T15:22:03.179Z,25.80
2019-03-29T15:24:33.033Z,21.90
2019-03-29T15:27:02.838Z,27.37
2019-03-29T15:29:33.659Z,23.47
2019-03-29T15:32:03.612Z,26.67
2019-03-29T15:34:33.501Z,25.53
2019-03-29T15:37:04.316Z,22.17
2019-03-29T15:39:34.274Z,21.67
2019-03-29T15:42:04.137Z,22.57
2019-03-29T15:44:34.040Z,22.97
2019-03-29T15:47:04.846Z,21.43
2019-03-29T15:49:34.842Z,21.42
2019-03-29T15:52:05.653Z,26.63
2019-03-29T15:54:35.655Z,24.33
2019-03-29T15:57:06.499Z,23.63
2019-03-29T15:59:38.404Z,21.37
2019-03-29T16:02:08.409Z,19.40
2019-03-29T16:04:39.246Z,24.53
2019-03-29T16:07:10.215Z,20.63
2019-03-29T16:09:41.135Z,28.80
2019-03-29T16:12:12.159Z,17.97
2019-03-29T16:14:43.068Z,19.93
2019-03-29T16:17:13.045Z,22.13
2019-03-29T16:19:43.842Z,23.70
2019-03-29T16:22:15.200Z,19.50
2019-03-29T16:24:46.106Z,20.50
2019-03-29T16:27:17.002Z,21.37
2019-03-29T16:29:47.968Z,18.30
2019-03-29T16:32:18.883Z,19.67
2019-03-29T16:34:50.751Z,20.63
2019-03-29T16:37:21.877Z,22.33
2019-03-29T16:39:52.930Z,19.60
2019-03-29T16:42:22.914Z,21.63
2019-03-29T16:44:54.002Z,20.97
2019-03-29T16:47:23.983Z,21.80
2019-03-29T16:49:56.827Z,21.73
2019-03-29T16:52:28.039Z,18.50
2019-03-29T16:55:11.917Z,22.53
2019-03-29T16:57:30.503Z,24.80
2019-03-29T17:00:01.300Z,22.80
2019-03-29T17:02:32.401Z,22.40
2019-03-29T17:05:03.296Z,24.10
2019-03-29T17:07:34.471Z,25.43
2019-03-29T17:10:04.938Z,28.47
2019-03-29T17:12:34.811Z,27.87
2019-03-29T17:15:05.021Z,25.10
2019-03-29T17:17:35.186Z,25.77
2019-03-29T17:20:05.776Z,28.47
2019-03-29T17:22:36.666Z,32.20
2019-03-29T17:25:07.756Z,33.93
2019-03-29T17:27:38.739Z,32.70
2019-03-29T17:30:09.542Z,36.83
2019-03-29T17:32:41.328Z,38.27
2019-03-29T17:35:11.272Z,38.80
2019-03-29T17:37:42.098Z,40.33
2019-03-29T17:40:12.288Z,42.08
2019-03-29T17:42:42.168Z,45.13
2019-03-29T17:45:12.063Z,49.20
2019-03-29T17:47:42.891Z,44.87
2019-03-29T17:50:12.910Z,40.53
2019-03-29T17:52:42.780Z,44.70
2019-03-29T17:55:13.551Z,48.63
2019-03-29T17:57:43.507Z,43.10
2019-03-29T18:00:17.909Z,46.73
2019-03-29T18:02:49.723Z,42.50
2019-03-29T18:05:21.948Z,45.07
2019-03-29T18:07:52.205Z,45.20
2019-03-29T18:10:23.002Z,41.60
2019-03-29T18:12:52.956Z,39.73
2019-03-29T18:15:23.943Z,43.10
2019-03-29T18:17:54.019Z,42.53
2019-03-29T18:20:23.929Z,41.87
2019-03-29T18:22:53.914Z,38.97
2019-03-29T18:25:24.850Z,41.83
2019-03-29T18:27:55.191Z,40.87
2019-03-29T18:30:39.407Z,37.43
2019-03-29T18:33:09.345Z,43.03
2019-03-29T18:35:40.176Z,42.57
2019-03-29T18:38:12.386Z,44.33
2019-03-29T18:40:43.200Z,43.67
2019-03-29T18:43:13.143Z,44.20
2019-03-29T18:45:44.058Z,43.73
2019-03-29T18:48:14.343Z,46.83
2019-03-29T18:50:45.237Z,51.27
2019-03-29T18:53:17.439Z,55.23
2019-03-29T18:55:47.347Z,51.80
2019-03-29T18:58:17.231Z,53.17
2019-03-29T19:00:48.071Z,58.13
2019-03-29T19:03:18.989Z,55.57
2019-03-29T19:05:49.943Z,64.22
2019-03-29T19:08:20.819Z,61.07
2019-03-29T19:10:51.780Z,64.33
2019-03-29T19:13:22.679Z,65.27
2019-03-29T19:15:53.580Z,62.90
2019-03-29T19:18:23.515Z,74.20
2019-03-29T19:20:54.385Z,67.80
2019-03-29T19:23:25.256Z,66.60
2019-03-29T19:25:58.066Z,63.30
2019-03-29T19:28:28.071Z,57.30
2019-03-29T19:30:58.878Z,61.23
2019-03-29T19:33:29.819Z,58.23
2019-03-29T19:36:00.747Z,60.77
2019-03-29T19:38:30.713Z,59.63
2019-03-29T19:41:01.574Z,59.90
2019-03-29T19:43:32.499Z,68.28
2019-03-29T19:46:03.392Z,61.13
2019-03-29T19:48:34.303Z,60.37
2019-03-29T19:51:06.214Z,62.40
2019-03-29T19:53:37.340Z,57.70
2019-03-29T19:56:07.330Z,76.90
2019-03-29T19:58:38.130Z,65.73
2019-03-29T20:01:08.066Z,57.63
2019-03-29T20:03:37.975Z,54.97
2019-03-29T20:06:07.905Z,53.10
2019-03-29T20:08:37.854Z,63.43
2019-03-29T20:11:07.662Z,56.30
2019-03-29T20:13:38.504Z,55.07
2019-03-29T20:16:09.420Z,56.70
2019-03-29T20:18:40.400Z,52.27
2019-03-29T20:21:11.522Z,57.63
2019-03-29T20:23:42.351Z,57.70
2019-03-29T20:26:13.619Z,58.40
2019-03-29T20:28:44.542Z,60.53
2019-03-29T20:31:14.471Z,58.50
2019-03-29T20:33:45.291Z,57.17
2019-03-29T20:36:22.825Z,52.47
2019-03-29T20:38:48.814Z,61.07
2019-03-29T20:41:18.797Z,57.78
2019-03-29T20:43:49.595Z,57.17
2019-03-29T20:46:21.622Z,61.93
2019-03-29T20:48:52.576Z,69.63
2019-03-29T20:51:22.604Z,57.70
2019-03-29T20:53:53.451Z,56.73
2019-03-29T20:56:24.470Z,56.83
2019-03-29T20:58:55.358Z,52.73
2019-03-29T21:01:26.344Z,57.05
2019-03-29T21:03:56.284Z,58.70
2019-03-29T21:06:27.223Z,58.47
2019-03-29T21:08:57.219Z,51.47
2019-03-29T21:11:27.182Z,57.80
2019-03-29T21:13:58.193Z,51.77
2019-03-29T21:16:28.203Z,51.53
2019-03-29T21:18:59.089Z,54.23
2019-03-29T21:21:30.274Z,52.88
2019-03-29T21:24:02.400Z,53.30
2019-03-29T21:26:34.804Z,45.17
2019-03-29T21:29:05.719Z,47.10
2019-03-29T21:31:36.966Z,51.87
2019-03-29T21:34:07.935Z,63.03
2019-03-29T21:36:41.096Z,46.37
2019-03-29T21:39:12.853Z,58.75
2019-03-29T21:41:44.146Z,135.67
2019-03-29T21:44:15.207Z,78.67
2019-03-29T21:46:48.329Z,93.80
2019-03-29T21:49:19.240Z,79.17
2019-03-29T21:51:49.292Z,69.70
2019-03-29T21:54:20.854Z,61.87
2019-03-29T21:56:51.817Z,53.87
2019-03-29T21:59:25.146Z,55.37
2019-03-29T22:01:55.278Z,53.70
2019-03-29T22:04:26.215Z,54.80
2019-03-29T22:06:57.090Z,49.27
2019-03-29T22:09:36.734Z,54.05
2019-03-29T22:11:59.548Z,53.63
2019-03-29T22:14:30.372Z,51.50
2019-03-29T22:17:01.294Z,53.20
2019-03-29T22:19:35.271Z,52.90
2019-03-29T22:22:05.211Z,60.23
2019-03-29T22:24:36.075Z,56.27
2019-03-29T22:27:06.947Z,63.37
2019-03-29T22:29:37.839Z,59.53
2019-03-29T22:32:07.834Z,58.23
2019-03-29T22:34:38.615Z,60.73
2019-03-29T22:37:08.606Z,63.27
2019-03-29T22:39:39.364Z,63.13
2019-03-29T22:42:10.275Z,64.90
2019-03-29T22:44:41.201Z,58.50
2019-03-29T22:47:12.140Z,63.73
2019-03-29T22:49:43.099Z,66.27
2019-03-29T22:52:13.966Z,69.83
2019-03-29T22:54:45.943Z,75.30
2019-03-29T22:57:16.843Z,65.77
2019-03-29T22:59:47.759Z,74.20
2019-03-29T23:02:18.675Z,67.27
2019-03-29T23:04:49.563Z,69.23
2019-03-29T23:07:21.207Z,72.93
2019-03-29T23:09:52.086Z,67.93
2019-03-29T23:12:22.974Z,70.67
2019-03-29T23:14:53.876Z,65.77
2019-03-29T23:17:24.733Z,73.47
2019-03-29T23:19:55.638Z,72.90
2019-03-29T23:22:26.565Z,74.05
2019-03-29T23:24:57.423Z,72.70
2019-03-29T23:27:28.338Z,78.93
2019-03-29T23:29:58.287Z,79.77
2019-03-29T23:32:29.102Z,84.67
2019-03-29T23:34:59.986Z,75.13
2019-03-29T23:37:31.363Z,80.23
2019-03-29T23:40:02.615Z,83.57
2019-03-29T23:42:33.510Z,80.23
2019-03-29T23:45:04.778Z,78.93
2019-03-29T23:47:35.646Z,80.43
2019-03-29T23:50:06.877Z,84.07
2019-03-29T23:52:37.771Z,81.75
2019-03-29T23:55:08.778Z,76.47
2019-03-29T23:57:39.631Z,81.87
